Time;durP1;ratioP1;P1;durP2;ratioP2;P2;SDS_P1;SDS_P2;PMS_P1;PMS_P2;Temp;Humidity;BMP_temperature;BMP_pressure;BME280_temperature;BME280_humidity;BME280_pressure;Samples;Min_cycle;Max_cycle;Signal;HPM_P1;HPM_P2
2024/01/10 00:00:17;;;;;;;6.65;1.50;;;;;;;;;;5064177;28;20071;-72
2024/01/10 00:02:47;;;;;;;8.15;1.85;;;;;;;;;;5064121;28;20045;-74
2024/01/10 00:05:19;;;;;;;5.93;1.85;;;;;;;;;;5063383;28;20059;-72
2024/01/10 00:07:51;;;;;;;6.97;1.95;;;;;;;;;;5063949;28;20407;-72
2024/01/10 00:10:22;;;;;;;7.75;1.83;;;;;;;;;;5063188;28;20102;-73
2024/01/10 00:12:53;;;;;;;4.88;1.63;;;;;;;;;;5063921;28;20059;-72
2024/01/10 00:15:24;;;;;;;11.25;1.90;;;;;;;;;;5063508;28;20123;-73
2024/01/10 00:17:55;;;;;;;10.02;2.35;;;;;;;;;;5063503;28;20056;-73
2024/01/10 00:20:25;;;;;;;6.47;2.10;;;;;;;;;;5063651;28;20049;-73
2024/01/10 00:22:55;;;;;;;9.75;1.90;;;;;;;;;;5063848;28;20048;-73
2024/01/10 00:25:26;;;;;;;6.97;1.73;;;;;;;;;;5062373;28;20052;-72
2024/01/10 00:27:57;;;;;;;6.72;1.90;;;;;;;;;;5063246;28;20045;-72
2024/01/10 00:30:29;;;;;;;8.07;2.10;;;;;;;;;;5063339;28;20063;-73
2024/01/10 00:32:59;;;;;;;4.40;1.70;;;;;;;;;;5063286;28;20036;-73
2024/01/10 00:35:29;;;;;;;6.10;1.85;;;;;;;;;;5063421;28;20048;-74
2024/01/10 00:38:01;;;;;;;7.30;2.10;;;;;;;;;;5061770;28;20052;-74
2024/01/10 00:40:33;;;;;;;9.75;1.63;;;;;;;;;;5063161;28;20059;-73
2024/01/10 00:43:04;;;;;;;8.57;1.98;;;;;;;;;;5063313;28;20094;-73
2024/01/10 00:45:34;;;;;;;6.88;2.03;;;;;;;;;;5061429;28;20051;-74
2024/01/10 00:48:04;;;;;;;8.75;1.88;;;;;;;;;;5063083;28;20523;-74
2024/01/10 00:50:37;;;;;;;7.03;1.75;;;;;;;;;;5063079;28;20053;-73
2024/01/10 00:53:07;;;;;;;11.80;2.30;;;;;;;;;;5061380;28;20111;-73
2024/01/10 00:55:37;;;;;;;7.45;1.92;;;;;;;;;;5063254;28;20044;-74
2024/01/10 00:58:07;;;;;;;5.38;1.95;;;;;;;;;;5062592;28;20052;-73
2024/01/10 01:00:38;;;;;;;5.32;1.85;;;;;;;;;;5055886;28;20515;-75
2024/01/10 01:03:10;;;;;;;4.43;1.60;;;;;;;;;;5043042;28;20057;-73
2024/01/10 01:05:42;;;;;;;8.20;2.58;;;;;;;;;;5042866;28;20041;-73
2024/01/10 01:08:12;;;;;;;6.93;1.70;;;;;;;;;;5042869;28;20044;-73
2024/01/10 01:10:42;;;;;;;8.52;2.03;;;;;;;;;;5041576;28;20723;-73
2024/01/10 01:13:13;;;;;;;6.82;2.05;;;;;;;;;;5042084;28;20060;-73
2024/01/10 01:15:44;;;;;;;8.13;1.88;;;;;;;;;;5042878;28;20049;-74
2024/01/10 01:18:14;;;;;;;8.02;2.30;;;;;;;;;;5042100;28;20427;-73
2024/01/10 01:20:45;;;;;;;5.88;1.70;;;;;;;;;;5041327;28;20076;-73
2024/01/10 01:23:15;;;;;;;6.32;1.73;;;;;;;;;;5040742;28;20045;-73
2024/01/10 01:26:04;;;;;;;7.50;1.95;;;;;;;;;;5040678;28;20045;-73
2024/01/10 01:28:35;;;;;;;7.40;2.00;;;;;;;;;;5041891;28;20115;-73
2024/01/10 01:31:06;;;;;;;8.50;1.67;;;;;;;;;;5039927;28;20504;-73
2024/01/10 01:33:36;;;;;;;4.20;1.85;;;;;;;;;;5038197;28;20056;-73
2024/01/10 01:36:07;;;;;;;9.63;2.08;;;;;;;;;;5040332;28;20041;-73
2024/01/10 01:38:38;;;;;;;3.70;1.60;;;;;;;;;;5042230;28;20409;-73
2024/01/10 01:41:11;;;;;;;9.45;2.13;;;;;;;;;;5041510;28;20602;-73
2024/01/10 01:43:41;;;;;;;3.15;1.70;;;;;;;;;;5040562;28;20428;-73
2024/01/10 01:46:12;;;;;;;3.42;1.52;;;;;;;;;;5041975;28;20056;-73
2024/01/10 01:48:43;;;;;;;3.63;1.75;;;;;;;;;;5042518;28;20057;-73
2024/01/10 01:51:16;;;;;;;5.45;1.60;;;;;;;;;;5042269;28;20049;-74
2024/01/10 01:53:49;;;;;;;3.95;1.45;;;;;;;;;;5042532;28;20045;-73
2024/01/10 01:56:20;;;;;;;6.43;1.90;;;;;;;;;;5041544;28;20045;-73
2024/01/10 01:58:53;;;;;;;5.35;1.40;;;;;;;;;;5041915;28;20761;-73
2024/01/10 02:01:24;;;;;;;7.07;1.80;;;;;;;;;;5041743;28;20515;-72
2024/01/10 02:03:56;;;;;;;3.17;1.60;;;;;;;;;;5041611;28;20044;-73
2024/01/10 02:06:26;;;;;;;6.20;1.67;;;;;;;;;;5042204;28;20049;-73
2024/01/10 02:09:03;;;;;;;6.35;1.80;;;;;;;;;;5041849;28;20056;-73
2024/01/10 02:11:34;;;;;;;2.95;1.25;;;;;;;;;;5041808;28;20064;-73
2024/01/10 02:14:05;;;;;;;9.57;1.85;;;;;;;;;;5042038;28;20056;-73
2024/01/10 02:16:35;;;;;;;8.13;2.03;;;;;;;;;;5041842;28;20049;-73
2024/01/10 02:19:23;;;;;;;6.93;2.00;;;;;;;;;;5041598;28;20045;-74
2024/01/10 02:21:53;;;;;;;6.32;1.48;;;;;;;;;;5043723;28;20099;-73
2024/01/10 02:24:24;;;;;;;4.45;1.80;;;;;;;;;;5045627;28;20048;-73
2024/01/10 02:26:54;;;;;;;7.30;2.60;;;;;;;;;;5045447;28;20041;-73
2024/01/10 02:29:26;;;;;;;3.97;1.40;;;;;;;;;;5045716;28;20049;-73
2024/01/10 02:31:58;;;;;;;2.47;1.40;;;;;;;;;;5045772;28;20409;-73
2024/01/10 02:34:30;;;;;;;4.53;1.33;;;;;;;;;;5046496;28;20431;-73
2024/01/10 02:37:01;;;;;;;9.32;2.08;;;;;;;;;;5044773;28;20052;-73
2024/01/10 02:39:33;;;;;;;4.32;1.70;;;;;;;;;;5045140;28;20072;-73
2024/01/10 02:42:04;;;;;;;4.85;1.30;;;;;;;;;;5045555;28;20052;-73
2024/01/10 02:44:34;;;;;;;2.90;1.48;;;;;;;;;;5043506;28;20060;-73
2024/01/10 02:47:05;;;;;;;5.28;1.60;;;;;;;;;;5045791;28;20048;-73
2024/01/10 02:49:37;;;;;;;3.63;1.83;;;;;;;;;;5045519;28;20578;-74
2024/01/10 02:52:07;;;;;;;2.40;1.63;;;;;;;;;;5045410;28;20052;-73
2024/01/10 02:54:38;;;;;;;3.78;1.58;;;;;;;;;;5043776;28;20055;-73
2024/01/10 02:57:08;;;;;;;6.60;1.40;;;;;;;;;;5045583;28;20047;-73
2024/01/10 02:59:38;;;;;;;2.78;1.42;;;;;;;;;;5044053;28;20060;-73
2024/01/10 03:02:09;;;;;;;4.10;1.27;;;;;;;;;;5043959;28;20048;-73
2024/01/10 03:04:40;;;;;;;4.47;1.30;;;;;;;;;;5045479;28;20056;-73
2024/01/10 03:07:10;;;;;;;7.63;1.52;;;;;;;;;;5045194;28;20037;-73
2024/01/10 03:09:42;;;;;;;2.78;1.45;;;;;;;;;;5045222;28;20045;-74
2024/01/10 03:12:14;;;;;;;3.58;1.50;;;;;;;;;;5045006;28;20405;-73
2024/01/10 03:14:45;;;;;;;6.63;1.60;;;;;;;;;;5044810;28;20044;-73
2024/01/10 03:17:14;;;;;;;4.45;1.52;;;;;;;;;;5045407;28;20045;-73
2024/01/10 03:19:45;;;;;;;5.65;1.45;;;;;;;;;;5044792;28;20045;-73
2024/01/10 03:22:17;;;;;;;2.05;1.40;;;;;;;;;;5044549;28;20527;-73
2024/01/10 03:24:48;;;;;;;3.85;1.40;;;;;;;;;;5044569;28;20048;-73
2024/01/10 03:27:18;;;;;;;7.68;1.15;;;;;;;;;;5044812;28;20041;-73
2024/01/10 03:29:48;;;;;;;3.28;1.40;;;;;;;;;;5044713;28;20065;-73
2024/01/10 03:32:19;;;;;;;3.70;1.40;;;;;;;;;;5043609;28;20044;-73
2024/01/10 03:34:51;;;;;;;4.15;1.00;;;;;;;;;;5044577;28;20049;-73
2024/01/10 03:37:21;;;;;;;4.90;1.40;;;;;;;;;;5045166;28;20060;-73
2024/01/10 03:39:51;;;;;;;5.85;1.45;;;;;;;;;;5044425;28;20539;-73
2024/01/10 03:42:22;;;;;;;2.08;0.95;;;;;;;;;;5044410;28;20427;-73
2024/01/10 03:44:53;;;;;;;6.00;1.35;;;;;;;;;;5044364;28;20049;-73
2024/01/10 03:47:23;;;;;;;2.40;1.38;;;;;;;;;;5044281;28;20053;-73
2024/01/10 03:49:54;;;;;;;4.85;1.13;;;;;;;;;;5044022;28;20055;-73
2024/01/10 03:52:24;;;;;;;2.10;1.30;;;;;;;;;;5043829;28;20041;-73
2024/01/10 03:54:54;;;;;;;1.25;1.00;;;;;;;;;;5044101;28;20420;-74
2024/01/10 03:57:25;;;;;;;4.75;1.20;;;;;;;;;;5044093;28;20048;-73
2024/01/10 03:59:56;;;;;;;4.45;1.02;;;;;;;;;;5044655;28;20496;-73
2024/01/10 04:02:27;;;;;;;1.30;0.90;;;;;;;;;;5044417;28;20048;-77
2024/01/10 04:04:58;;;;;;;7.35;1.30;;;;;;;;;;5043085;28;20049;-73
2024/01/10 04:07:32;;;;;;;6.70;1.73;;;;;;;;;;5044181;28;20060;-73
2024/01/10 04:10:03;;;;;;;3.67;1.30;;;;;;;;;;5041905;28;20555;-74
2024/01/10 04:12:33;;;;;;;4.00;1.17;;;;;;;;;;5043791;28;20037;-73
2024/01/10 04:15:04;;;;;;;3.10;1.30;;;;;;;;;;5043235;28;20049;-73
2024/01/10 04:17:35;;;;;;;2.70;1.30;;;;;;;;;;5043663;28;20052;-73
2024/01/10 04:20:08;;;;;;;3.22;1.20;;;;;;;;;;5043649;28;20531;-73
2024/01/10 04:22:38;;;;;;;5.97;1.30;;;;;;;;;;5043269;28;20635;-73
2024/01/10 04:25:09;;;;;;;2.08;1.25;;;;;;;;;;5043308;28;20041;-73
2024/01/10 04:27:40;;;;;;;4.22;1.25;;;;;;;;;;5044269;28;20519;-73
2024/01/10 04:30:11;;;;;;;5.22;1.30;;;;;;;;;;5043018;28;20049;-74
2024/01/10 04:32:42;;;;;;;5.50;1.30;;;;;;;;;;5043224;28;20049;-73
2024/01/10 04:35:12;;;;;;;4.20;1.75;;;;;;;;;;5043886;28;20048;-73
2024/01/10 04:37:42;;;;;;;4.80;1.40;;;;;;;;;;5043593;28;21291;-73
2024/01/10 04:40:14;;;;;;;5.38;1.35;;;;;;;;;;5043293;28;20103;-73
2024/01/10 04:42:45;;;;;;;4.70;1.40;;;;;;;;;;5043544;28;20052;-73
2024/01/10 04:45:15;;;;;;;3.28;1.45;;;;;;;;;;5042906;28;20613;-74
2024/01/10 04:47:46;;;;;;;3.88;2.03;;;;;;;;;;5042282;28;20056;-73
2024/01/10 04:50:17;;;;;;;2.30;1.20;;;;;;;;;;5043123;28;20052;-73
2024/01/10 04:52:47;;;;;;;2.22;1.33;;;;;;;;;;5042914;28;20052;-73
2024/01/10 04:55:17;;;;;;;2.58;1.52;;;;;;;;;;5043101;28;20045;-73
2024/01/10 04:57:48;;;;;;;6.55;2.10;;;;;;;;;;5042956;28;20431;-73
2024/01/10 05:00:19;;;;;;;4.90;2.30;;;;;;;;;;5043062;28;20044;-73
2024/01/10 05:02:51;;;;;;;6.63;2.00;;;;;;;;;;5043011;28;20068;-73
2024/01/10 05:05:23;;;;;;;5.35;2.35;;;;;;;;;;5043116;28;20060;-73
2024/01/10 05:07:54;;;;;;;3.13;2.03;;;;;;;;;;5042908;28;20041;-73
2024/01/10 05:10:25;;;;;;;4.72;2.40;;;;;;;;;;5041053;28;20057;-73
2024/01/10 05:12:56;;;;;;;4.72;2.55;;;;;;;;;;5043025;28;20045;-73
2024/01/10 05:15:26;;;;;;;7.90;2.40;;;;;;;;;;5042975;28;20111;-73
2024/01/10 05:17:56;;;;;;;3.58;2.00;;;;;;;;;;5042628;28;20045;-73
2024/01/10 05:20:28;;;;;;;6.32;2.22;;;;;;;;;;5043054;28;20056;-73
2024/01/10 05:23:01;;;;;;;7.32;2.45;;;;;;;;;;5041749;28;20076;-73
2024/01/10 05:25:32;;;;;;;5.65;2.05;;;;;;;;;;5042853;28;20056;-73
2024/01/10 05:28:02;;;;;;;3.13;1.80;;;;;;;;;;5042379;28;20050;-73
2024/01/10 05:30:33;;;;;;;3.97;2.42;;;;;;;;;;5042630;28;20056;-73
2024/01/10 05:33:03;;;;;;;4.97;2.30;;;;;;;;;;5042084;28;20057;-73
2024/01/10 05:35:35;;;;;;;5.88;2.45;;;;;;;;;;5042484;28;20060;-73
2024/01/10 05:38:05;;;;;;;8.15;2.35;;;;;;;;;;5042718;28;20049;-73
2024/01/10 05:40:36;;;;;;;6.88;2.65;;;;;;;;;;5042134;28;20435;-73
2024/01/10 05:43:07;;;;;;;4.90;2.25;;;;;;;;;;5042797;28;20052;-73
2024/01/10 05:45:37;;;;;;;10.15;2.53;;;;;;;;;;5041594;28;20656;-73
2024/01/10 05:48:07;;;;;;;6.50;2.42;;;;;;;;;;5042306;28;20523;-73
2024/01/10 05:50:39;;;;;;;3.25;2.38;;;;;;;;;;5042281;28;20060;-73
2024/01/10 05:53:12;;;;;;;6.90;2.45;;;;;;;;;;5042074;28;20068;-73
2024/01/10 05:55:44;;;;;;;4.82;2.25;;;;;;;;;;5042113;28;20048;-73
2024/01/10 05:58:14;;;;;;;4.50;2.80;;;;;;;;;;5041635;28;20060;-73
2024/01/10 06:00:45;;;;;;;9.60;2.50;;;;;;;;;;5041909;28;20404;-73
2024/01/10 06:03:16;;;;;;;6.13;2.30;;;;;;;;;;5041659;28;20052;-73
2024/01/10 06:05:46;;;;;;;3.45;2.25;;;;;;;;;;5040387;28;20047;-72
2024/01/10 06:08:17;;;;;;;4.28;2.00;;;;;;;;;;5040850;28;20405;-73
2024/01/10 06:10:47;;;;;;;5.45;2.28;;;;;;;;;;5041437;28;20041;-73
2024/01/10 06:13:17;;;;;;;4.75;2.30;;;;;;;;;;5042062;28;20806;-73
2024/01/10 06:15:50;;;;;;;4.82;1.95;;;;;;;;;;5041683;28;20057;-73
2024/01/10 06:18:22;;;;;;;4.43;2.22;;;;;;;;;;5041784;28;20053;-73
2024/01/10 06:20:52;;;;;;;3.67;2.08;;;;;;;;;;5042167;28;20056;-73
2024/01/10 06:23:22;;;;;;;4.47;2.42;;;;;;;;;;5041881;28;20044;-73
2024/01/10 06:25:54;;;;;;;7.43;2.08;;;;;;;;;;5041038;28;20048;-73
2024/01/10 06:28:25;;;;;;;5.05;2.03;;;;;;;;;;5042578;28;20045;-73
2024/01/10 06:30:55;;;;;;;3.33;2.05;;;;;;;;;;5042239;28;20041;-73
2024/01/10 06:33:26;;;;;;;5.50;2.20;;;;;;;;;;5041775;28;20782;-73
2024/01/10 06:35:58;;;;;;;6.30;2.00;;;;;;;;;;5041506;28;20550;-73
2024/01/10 06:38:29;;;;;;;7.18;2.47;;;;;;;;;;5041685;28;20431;-73
2024/01/10 06:40:59;;;;;;;4.00;2.10;;;;;;;;;;5041689;28;20488;-73
2024/01/10 06:43:30;;;;;;;8.85;2.25;;;;;;;;;;5041758;28;20048;-73
2024/01/10 06:46:00;;;;;;;6.50;1.85;;;;;;;;;;5041815;28;20396;-73
2024/01/10 06:48:32;;;;;;;4.70;2.10;;;;;;;;;;5041497;28;20041;-73
2024/01/10 06:51:03;;;;;;;2.92;1.83;;;;;;;;;;5041605;28;20045;-73
2024/01/10 06:53:32;;;;;;;5.63;1.95;;;;;;;;;;5041320;28;20084;-73
2024/01/10 06:56:03;;;;;;;6.22;1.98;;;;;;;;;;5041711;28;20049;-73
2024/01/10 06:58:34;;;;;;;4.85;1.60;;;;;;;;;;5040413;28;20053;-73
2024/01/10 07:01:05;;;;;;;3.10;1.80;;;;;;;;;;5042178;28;20056;-73
2024/01/10 07:03:35;;;;;;;3.03;1.48;;;;;;;;;;5041452;28;20056;-73
2024/01/10 07:06:05;;;;;;;4.57;2.00;;;;;;;;;;5041229;28;20045;-73
2024/01/10 07:08:36;;;;;;;2.53;1.98;;;;;;;;;;5043804;28;20454;-73
2024/01/10 07:11:07;;;;;;;9.20;1.98;;;;;;;;;;5044952;28;20049;-73
2024/01/10 07:13:39;;;;;;;4.28;2.10;;;;;;;;;;5044988;28;20044;-73
2024/01/10 07:16:09;;;;;;;8.10;2.03;;;;;;;;;;5046358;28;20420;-73
2024/01/10 07:18:40;;;;;;;3.65;1.83;;;;;;;;;;5045516;28;20055;-73
2024/01/10 07:21:12;;;;;;;6.63;1.77;;;;;;;;;;5045205;28;20048;-73
2024/01/10 07:23:43;;;;;;;7.43;2.15;;;;;;;;;;5044324;28;20425;-73
2024/01/10 07:26:16;;;;;;;6.95;2.03;;;;;;;;;;5044580;28;20045;-73
2024/01/10 07:28:47;;;;;;;5.53;1.85;;;;;;;;;;5043377;28;20052;-73
2024/01/10 07:31:18;;;;;;;6.82;2.20;;;;;;;;;;5045163;28;20044;-73
2024/01/10 07:33:49;;;;;;;3.92;2.20;;;;;;;;;;5044695;28;20064;-73
2024/01/10 07:36:18;;;;;;;4.15;1.85;;;;;;;;;;5043306;28;20053;-73
2024/01/10 07:38:49;;;;;;;3.95;1.90;;;;;;;;;;5044346;28;20048;-73
2024/01/10 07:41:20;;;;;;;4.75;2.00;;;;;;;;;;5043771;28;20059;-72
2024/01/10 07:43:51;;;;;;;4.18;1.88;;;;;;;;;;5044520;28;20051;-72
2024/01/10 07:46:22;;;;;;;5.90;1.83;;;;;;;;;;5044649;28;20044;-72
2024/01/10 07:48:53;;;;;;;5.28;2.17;;;;;;;;;;5045250;28;20049;-73
2024/01/10 07:51:24;;;;;;;3.92;1.48;;;;;;;;;;5044265;28;20068;-73
2024/01/10 07:53:54;;;;;;;4.68;1.77;;;;;;;;;;5044795;28;20068;-73
2024/01/10 07:56:25;;;;;;;4.10;1.83;;;;;;;;;;5044194;28;20418;-73
2024/01/10 07:58:56;;;;;;;6.88;1.80;;;;;;;;;;5044471;28;20041;-73
2024/01/10 08:01:26;;;;;;;4.68;1.85;;;;;;;;;;5043862;28;20423;-73
2024/01/10 08:03:58;;;;;;;2.97;1.88;;;;;;;;;;5044454;28;20099;-73
2024/01/10 08:06:29;;;;;;;3.95;1.83;;;;;;;;;;5044464;28;20064;-73
2024/01/10 08:09:04;;;;;;;4.40;1.90;;;;;;;;;;5044175;28;20053;-73
2024/01/10 08:11:35;;;;;;;2.85;1.58;;;;;;;;;;5042373;28;20441;-72
2024/01/10 08:14:06;;;;;;;2.60;1.80;;;;;;;;;;5043572;28;20488;-72
2024/01/10 08:16:37;;;;;;;4.85;2.10;;;;;;;;;;5043872;28;20408;-72
2024/01/10 08:19:07;;;;;;;2.97;1.50;;;;;;;;;;5043138;28;20056;-72
2024/01/10 08:21:38;;;;;;;2.35;1.63;;;;;;;;;;5043848;28;20049;-73
2024/01/10 08:24:08;;;;;;;2.33;1.55;;;;;;;;;;5043674;28;20526;-73
2024/01/10 08:26:39;;;;;;;1.65;1.25;;;;;;;;;;5044273;28;20384;-73
2024/01/10 08:29:09;;;;;;;2.47;1.45;;;;;;;;;;5043443;28;20547;-72
2024/01/10 08:31:39;;;;;;;2.38;0.85;;;;;;;;;;5043286;28;20051;-73
2024/01/10 08:34:10;;;;;;;3.10;1.27;;;;;;;;;;5043333;28;21152;-72
2024/01/10 08:36:40;;;;;;;2.10;1.20;;;;;;;;;;5043708;28;20055;-73
2024/01/10 08:39:12;;;;;;;2.15;1.30;;;;;;;;;;5044378;28;20045;-72
2024/01/10 08:41:44;;;;;;;2.75;1.60;;;;;;;;;;5043537;28;20057;-73
2024/01/10 08:44:14;;;;;;;1.52;1.30;;;;;;;;;;5043706;28;20049;-72
2024/01/10 08:46:45;;;;;;;8.45;1.63;;;;;;;;;;5043143;28;20060;-73
2024/01/10 08:49:16;;;;;;;4.80;1.50;;;;;;;;;;5043092;28;20480;-72
2024/01/10 08:51:47;;;;;;;1.75;1.40;;;;;;;;;;5041936;28;20053;-73
2024/01/10 08:54:19;;;;;;;2.63;1.58;;;;;;;;;;5043450;28;20056;-73
2024/01/10 08:56:51;;;;;;;1.90;1.38;;;;;;;;;;5044693;28;20045;-73
2024/01/10 08:59:22;;;;;;;3.25;1.58;;;;;;;;;;5042347;28;20665;-73
2024/01/10 09:01:52;;;;;;;8.05;1.80;;;;;;;;;;5042918;28;20045;-73
2024/01/10 09:04:22;;;;;;;5.32;1.92;;;;;;;;;;5042687;28;20167;-76
2024/01/10 09:06:52;;;;;;;5.43;1.80;;;;;;;;;;5042789;28;21086;-73
2024/01/10 09:09:24;;;;;;;3.88;1.83;;;;;;;;;;5042420;28;20820;-73
2024/01/10 09:11:55;;;;;;;5.47;1.83;;;;;;;;;;5042563;28;20045;-73
2024/01/10 09:14:25;;;;;;;5.30;1.80;;;;;;;;;;5042292;28;20051;-73
2024/01/10 09:16:55;;;;;;;5.32;1.90;;;;;;;;;;5041438;28;20052;-81
2024/01/10 09:19:26;;;;;;;3.70;2.17;;;;;;;;;;5042570;28;20057;-73
2024/01/10 09:21:58;;;;;;;4.28;1.73;;;;;;;;;;5042201;28;20048;-72
2024/01/10 09:24:28;;;;;;;2.65;1.95;;;;;;;;;;5042631;28;20052;-73
2024/01/10 09:26:58;;;;;;;4.32;2.08;;;;;;;;;;5042268;28;20052;-73
2024/01/10 09:29:29;;;;;;;4.32;2.00;;;;;;;;;;5042813;28;20507;-77
2024/01/10 09:31:59;;;;;;;6.55;1.83;;;;;;;;;;5042454;28;20053;-73
2024/01/10 09:34:32;;;;;;;8.48;1.77;;;;;;;;;;5042321;28;20048;-72
2024/01/10 09:37:02;;;;;;;4.65;2.00;;;;;;;;;;5041734;28;20045;-72
2024/01/10 09:39:32;;;;;;;16.05;2.50;;;;;;;;;;5042764;28;20064;-72
2024/01/10 09:42:03;;;;;;;5.55;2.28;;;;;;;;;;5041788;28;20049;-72
2024/01/10 09:44:36;;;;;;;6.68;2.30;;;;;;;;;;5042683;28;20072;-73
2024/01/10 09:47:07;;;;;;;2.38;1.88;;;;;;;;;;5040929;28;20048;-72
2024/01/10 09:49:38;;;;;;;5.50;1.75;;;;;;;;;;5041498;28;20049;-72
2024/01/10 09:52:11;;;;;;;4.65;1.58;;;;;;;;;;5042467;28;20133;-71
2024/01/10 09:54:46;;;;;;;7.65;1.83;;;;;;;;;;5042484;28;20060;-78
2024/01/10 09:57:18;;;;;;;3.90;1.70;;;;;;;;;;5041343;28;20508;-75
2024/01/10 09:59:51;;;;;;;11.02;1.60;;;;;;;;;;5040803;28;20048;-74
2024/01/10 10:02:24;;;;;;;5.05;1.33;;;;;;;;;;5042016;28;20045;-74
2024/01/10 10:05:05;;;;;;;1.88;1.40;;;;;;;;;;5041935;28;20052;-73
2024/01/10 10:07:49;;;;;;;3.22;1.70;;;;;;;;;;5041892;28;20056;-73
2024/01/10 10:10:20;;;;;;;22.30;2.30;;;;;;;;;;5040759;28;20048;-73
2024/01/10 10:12:54;;;;;;;6.10;1.58;;;;;;;;;;5041093;28;20064;-73
2024/01/10 10:15:29;;;;;;;6.07;1.58;;;;;;;;;;5041890;28;20075;-73
2024/01/10 10:18:00;;;;;;;3.83;1.40;;;;;;;;;;5041630;28;20049;-73
2024/01/10 10:20:37;;;;;;;5.38;1.60;;;;;;;;;;5042356;28;20068;-74
2024/01/10 10:23:12;;;;;;;3.88;1.60;;;;;;;;;;5042250;28;20041;-74
2024/01/10 10:25:50;;;;;;;4.68;1.23;;;;;;;;;;5041591;28;20045;-73
2024/01/10 10:28:20;;;;;;;2.85;1.50;;;;;;;;;;5041825;28;20056;-73
2024/01/10 10:31:02;;;;;;;3.05;1.30;;;;;;;;;;5041516;28;20071;-73
2024/01/10 10:33:33;;;;;;;6.00;1.55;;;;;;;;;;5041975;28;20412;-73
2024/01/10 10:36:06;;;;;;;5.60;1.45;;;;;;;;;;5041939;28;20041;-74
2024/01/10 10:38:37;;;;;;;8.00;1.35;;;;;;;;;;5041689;28;20052;-73
2024/01/10 10:41:10;;;;;;;6.15;1.60;;;;;;;;;;5041405;28;20084;-74
2024/01/10 10:43:42;;;;;;;3.08;1.30;;;;;;;;;;5044191;28;20049;-77
2024/01/10 10:46:12;;;;;;;2.17;1.40;;;;;;;;;;5045422;28;20048;-73
2024/01/10 10:48:44;;;;;;;2.83;1.70;;;;;;;;;;5046330;28;20653;-73
2024/01/10 10:51:33;;;;;;;8.18;1.80;;;;;;;;;;5045947;28;20051;-73
2024/01/10 10:54:05;;;;;;;2.67;1.42;;;;;;;;;;5045701;28;20056;-74
2024/01/10 10:56:38;;;;;;;4.38;1.52;;;;;;;;;;5045080;28;20053;-74
2024/01/10 10:59:12;;;;;;;6.00;1.73;;;;;;;;;;5045256;28;20412;-76
2024/01/10 11:01:46;;;;;;;2.50;1.52;;;;;;;;;;5045492;28;20623;-74
2024/01/10 11:04:19;;;;;;;5.43;1.92;;;;;;;;;;5044973;28;20061;-74
2024/01/10 11:06:50;;;;;;;4.80;1.77;;;;;;;;;;5045278;28;20055;-73
2024/01/10 11:09:23;;;;;;;7.15;2.10;;;;;;;;;;5045524;28;20427;-75
2024/01/10 11:12:28;;;;;;;5.50;1.85;;;;;;;;;;5045067;28;20076;-74
2024/01/10 11:15:02;;;;;;;3.13;1.60;;;;;;;;;;5043805;28;20056;-73
2024/01/10 11:18:10;;;;;;;2.40;1.63;;;;;;;;;;5045087;28;20052;-74
2024/01/10 11:21:02;;;;;;;4.57;1.63;;;;;;;;;;5044982;28;20045;-73
2024/01/10 11:23:46;;;;;;;2.85;1.33;;;;;;;;;;5045892;28;20045;-74
2024/01/10 11:26:19;;;;;;;1.45;1.08;;;;;;;;;;5044578;28;20898;-74
2024/01/10 11:28:51;;;;;;;6.00;1.05;;;;;;;;;;5043186;28;20411;-75
2024/01/10 11:31:30;;;;;;;3.13;1.00;;;;;;;;;;5044652;28;20053;-74
2024/01/10 11:34:03;;;;;;;2.08;0.90;;;;;;;;;;5045092;28;20044;-74
2024/01/10 11:36:34;;;;;;;4.32;1.10;;;;;;;;;;5044916;28;20060;-74
2024/01/10 11:39:06;;;;;;;2.72;0.70;;;;;;;;;;5044611;28;20041;-74
2024/01/10 11:41:40;;;;;;;1.45;0.90;;;;;;;;;;5044146;28;20152;-74
2024/01/10 11:44:17;;;;;;;1.27;0.80;;;;;;;;;;5044219;28;20041;-74
2024/01/10 11:46:54;;;;;;;2.13;0.88;;;;;;;;;;5044720;28;20989;-74
2024/01/10 11:49:26;;;;;;;3.75;1.08;;;;;;;;;;5043297;28;20060;-75
2024/01/10 11:51:58;;;;;;;4.07;0.73;;;;;;;;;;5043704;28;20060;-74
2024/01/10 11:54:38;;;;;;;4.65;0.82;;;;;;;;;;5043232;28;20049;-74
2024/01/10 11:57:24;;;;;;;1.25;0.60;;;;;;;;;;5043978;28;20496;-75
2024/01/10 11:59:59;;;;;;;3.75;1.00;;;;;;;;;;5044658;28;20052;-74
2024/01/10 12:02:32;;;;;;;4.68;0.80;;;;;;;;;;5045348;28;20061;-74
2024/01/10 12:05:02;;;;;;;0.82;0.70;;;;;;;;;;5043764;28;20053;-75
2024/01/10 12:07:33;;;;;;;1.40;0.73;;;;;;;;;;5043785;28;20045;-75
2024/01/10 12:10:06;;;;;;;1.98;0.73;;;;;;;;;;5042694;28;20045;-75
2024/01/10 12:12:36;;;;;;;1.50;0.82;;;;;;;;;;5044634;28;20492;-76
2024/01/10 12:15:06;;;;;;;4.53;1.05;;;;;;;;;;5043685;28;20071;-76
2024/01/10 12:17:40;;;;;;;4.30;1.30;;;;;;;;;;5043751;28;20049;-76
2024/01/10 12:20:12;;;;;;;5.00;1.48;;;;;;;;;;5044022;28;20049;-75
2024/01/10 12:22:43;;;;;;;3.55;1.40;;;;;;;;;;5044043;28;20049;-74
2024/01/10 12:25:14;;;;;;;3.95;1.52;;;;;;;;;;5042586;28;20053;-74
2024/01/10 12:27:45;;;;;;;4.70;1.38;;;;;;;;;;5043409;28;20037;-75
2024/01/10 12:30:17;;;;;;;2.85;1.48;;;;;;;;;;5044236;28;20053;-75
2024/01/10 12:32:51;;;;;;;3.88;1.27;;;;;;;;;;5042062;28;20528;-74
2024/01/10 12:35:22;;;;;;;12.63;1.70;;;;;;;;;;5043299;28;20059;-75
2024/01/10 12:37:58;;;;;;;6.15;1.15;;;;;;;;;;5043290;28;20052;-75
2024/01/10 12:40:30;;;;;;;4.72;1.30;;;;;;;;;;5043330;28;20041;-75
2024/01/10 12:43:04;;;;;;;3.78;1.08;;;;;;;;;;5043158;28;20044;-75
2024/01/10 12:45:35;;;;;;;4.25;1.25;;;;;;;;;;5043616;28;20603;-74
2024/01/10 12:48:08;;;;;;;8.25;1.40;;;;;;;;;;5042987;28;20053;-75
2024/01/10 12:50:40;;;;;;;2.15;1.10;;;;;;;;;;5041973;28;20527;-79
2024/01/10 12:53:10;;;;;;;4.85;1.30;;;;;;;;;;5043036;28;20049;-75
2024/01/10 12:55:40;;;;;;;5.43;1.27;;;;;;;;;;5042633;28;20432;-76
2024/01/10 12:58:12;;;;;;;3.35;1.13;;;;;;;;;;5043306;28;20056;-76
2024/01/10 13:00:42;;;;;;;2.22;1.13;;;;;;;;;;5041830;28;20072;-75
2024/01/10 13:03:14;;;;;;;2.83;1.40;;;;;;;;;;5042941;28;20420;-75
2024/01/10 13:05:44;;;;;;;2.95;1.10;;;;;;;;;;5042457;28;20045;-75
2024/01/10 13:08:15;;;;;;;3.63;1.23;;;;;;;;;;5042880;28;20053;-75
2024/01/10 13:10:49;;;;;;;4.30;1.00;;;;;;;;;;5042711;28;20047;-75
2024/01/10 13:13:21;;;;;;;4.70;0.85;;;;;;;;;;5044037;28;20053;-74
2024/01/10 13:15:52;;;;;;;8.40;1.30;;;;;;;;;;5042358;28;20056;-75
2024/01/10 13:18:22;;;;;;;5.10;4.18;;;;;;;;;;5042801;28;20049;-75
2024/01/10 13:20:54;;;;;;;2.13;1.08;;;;;;;;;;5042430;28;20091;-75
2024/01/10 13:23:25;;;;;;;2.25;1.10;;;;;;;;;;5042372;28;20048;-76
2024/01/10 13:25:55;;;;;;;3.75;0.90;;;;;;;;;;5042606;28;20049;-75
2024/01/10 13:28:27;;;;;;;4.10;0.93;;;;;;;;;;5042213;28;20053;-75
2024/01/10 13:30:58;;;;;;;5.85;2.30;;;;;;;;;;5042683;28;20064;-75
2024/01/10 13:33:29;;;;;;;2.80;0.88;;;;;;;;;;5042695;28;20405;-75
2024/01/10 13:35:59;;;;;;;2.10;1.02;;;;;;;;;;5042283;28;20055;-75
2024/01/10 13:38:30;;;;;;;3.97;1.00;;;;;;;;;;5042488;28;20396;-74
2024/01/10 13:41:03;;;;;;;21.77;1.50;;;;;;;;;;5041981;28;20057;-75
2024/01/10 13:43:33;;;;;;;4.72;1.20;;;;;;;;;;5042460;28;20045;-75
2024/01/10 13:46:03;;;;;;;1.92;1.00;;;;;;;;;;5042291;28;20049;-75
2024/01/10 13:48:38;;;;;;;4.18;1.10;;;;;;;;;;5042283;28;20531;-75
2024/01/10 13:51:09;;;;;;;3.50;1.10;;;;;;;;;;5042128;28;21114;-75
2024/01/10 13:53:40;;;;;;;3.15;1.00;;;;;;;;;;5042188;28;20052;-75
2024/01/10 13:56:12;;;;;;;4.38;1.23;;;;;;;;;;5042709;28;20056;-76
2024/01/10 13:58:43;;;;;;;1.85;0.95;;;;;;;;;;5042071;28;20803;-75
2024/01/10 14:01:15;;;;;;;2.22;1.10;;;;;;;;;;5040564;28;20515;-75
2024/01/10 14:03:46;;;;;;;3.00;1.17;;;;;;;;;;5041612;28;20419;-75
2024/01/10 14:06:16;;;;;;;4.63;1.42;;;;;;;;;;5042036;28;20064;-74
2024/01/10 14:08:48;;;;;;;2.80;1.30;;;;;;;;;;5042254;28;20047;-75
2024/01/10 14:11:20;;;;;;;7.72;1.20;;;;;;;;;;5041754;28;20056;-75
2024/01/10 14:13:52;;;;;;;3.40;1.10;;;;;;;;;;5041470;28;20044;-75
2024/01/10 14:16:23;;;;;;;6.10;1.50;;;;;;;;;;5041554;28;20575;-75
2024/01/10 14:18:55;;;;;;;2.42;1.30;;;;;;;;;;5045415;28;20514;-78
2024/01/10 14:21:27;;;;;;;3.55;1.73;;;;;;;;;;5046185;28;20056;-75
2024/01/10 14:23:58;;;;;;;1.85;1.00;;;;;;;;;;5046187;28;20040;-74
2024/01/10 14:26:28;;;;;;;2.70;1.20;;;;;;;;;;5045010;28;20057;-75
2024/01/10 14:28:59;;;;;;;3.58;1.40;;;;;;;;;;5045631;28;20076;-75
2024/01/10 14:31:32;;;;;;;2.25;1.13;;;;;;;;;;5046093;28;20057;-75
2024/01/10 14:34:23;;;;;;;1.90;1.15;;;;;;;;;;5046652;28;20045;-75
2024/01/10 14:36:53;;;;;;;3.60;1.15;;;;;;;;;;5046104;28;20423;-79
2024/01/10 14:39:24;;;;;;;4.75;1.60;;;;;;;;;;5045649;28;20417;-75
2024/01/10 14:41:55;;;;;;;3.33;1.30;;;;;;;;;;5044287;28;20052;-75
2024/01/10 14:44:25;;;;;;;2.80;1.40;;;;;;;;;;5044814;28;20496;-75
2024/01/10 14:46:56;;;;;;;5.10;1.38;;;;;;;;;;5046172;28;20060;-75
2024/01/10 14:49:39;;;;;;;7.13;1.58;;;;;;;;;;5045036;28;20052;-75
2024/01/10 14:52:12;;;;;;;4.30;1.33;;;;;;;;;;5045559;28;20041;-75
2024/01/10 14:54:42;;;;;;;4.45;1.42;;;;;;;;;;5045417;28;20060;-75
2024/01/10 14:57:12;;;;;;;2.78;1.40;;;;;;;;;;5045634;28;20064;-78
2024/01/10 14:59:43;;;;;;;3.78;2.15;;;;;;;;;;5044020;28;20053;-75
2024/01/10 15:02:19;;;;;;;3.85;1.30;;;;;;;;;;5045361;28;20056;-75
2024/01/10 15:04:49;;;;;;;6.22;1.55;;;;;;;;;;5045136;28;20056;-75
2024/01/10 15:07:19;;;;;;;3.30;1.20;;;;;;;;;;5045646;28;20416;-75
2024/01/10 15:09:51;;;;;;;2.35;1.30;;;;;;;;;;5045854;28;20040;-76